sensor_id;sensor_type;location;lat;lon;timestamp;pressure;altitude;pressure_sealevel;temperature
76713;BMP280;65640;43.154;25.658;2024-02-04T00:01:25;101041.53;;;5.81
76713;BMP280;65640;43.154;25.658;2024-02-04T00:03:50;101042.19;;;5.76
76713;BMP280;65640;43.154;25.658;2024-02-04T00:06:16;101036.91;;;5.83
76713;BMP280;65640;43.154;25.658;2024-02-04T00:08:41;101034.84;;;6.03
76713;BMP280;65640;43.154;25.658;2024-02-04T00:11:06;101036.22;;;6.06
76713;BMP280;65640;43.154;25.658;2024-02-04T00:13:33;101039.28;;;6.14
76713;BMP280;65640;43.154;25.658;2024-02-04T00:15:59;101037.75;;;6.37
76713;BMP280;65640;43.154;25.658;2024-02-04T00:18:25;101033.38;;;6.49
76713;BMP280;65640;43.154;25.658;2024-02-04T00:20:50;101030.38;;;6.75
76713;BMP280;65640;43.154;25.658;2024-02-04T00:23:16;101032.59;;;6.83
76713;BMP280;65640;43.154;25.658;2024-02-04T00:25:41;101028.19;;;6.96
76713;BMP280;65640;43.154;25.658;2024-02-04T00:28:07;101029.56;;;6.98
76713;BMP280;65640;43.154;25.658;2024-02-04T00:30:33;101025.69;;;7.01
76713;BMP280;65640;43.154;25.658;2024-02-04T00:32:58;101024.69;;;7.02
76713;BMP280;65640;43.154;25.658;2024-02-04T00:35:28;101037.34;;;7.10
76713;BMP280;65640;43.154;25.658;2024-02-04T00:37:53;101018.38;;;6.98
76713;BMP280;65640;43.154;25.658;2024-02-04T00:40:19;101018.59;;;6.96
76713;BMP280;65640;43.154;25.658;2024-02-04T00:42:44;101019.16;;;6.98
76713;BMP280;65640;43.154;25.658;2024-02-04T00:45:10;101014.50;;;7.12
76713;BMP280;65640;43.154;25.658;2024-02-04T00:47:35;101014.94;;;7.09
76713;BMP280;65640;43.154;25.658;2024-02-04T00:50:01;101012.09;;;7.22
76713;BMP280;65640;43.154;25.658;2024-02-04T00:52:26;101009.81;;;7.25
76713;BMP280;65640;43.154;25.658;2024-02-04T00:54:52;101004.16;;;7.28
76713;BMP280;65640;43.154;25.658;2024-02-04T00:57:17;101005.28;;;7.33
76713;BMP280;65640;43.154;25.658;2024-02-04T00:59:42;101004.81;;;7.36
76713;BMP280;65640;43.154;25.658;2024-02-04T01:02:08;101007.88;;;7.33
76713;BMP280;65640;43.154;25.658;2024-02-04T01:04:33;100999.69;;;7.52
76713;BMP280;65640;43.154;25.658;2024-02-04T01:06:59;100992.13;;;7.67
76713;BMP280;65640;43.154;25.658;2024-02-04T01:09:24;100985.53;;;7.77
76713;BMP280;65640;43.154;25.658;2024-02-04T01:11:49;100983.00;;;7.82
76713;BMP280;65640;43.154;25.658;2024-02-04T01:14:15;100975.22;;;7.98
76713;BMP280;65640;43.154;25.658;2024-02-04T01:16:40;100982.25;;;7.98
76713;BMP280;65640;43.154;25.658;2024-02-04T01:19:06;100975.44;;;7.97
76713;BMP280;65640;43.154;25.658;2024-02-04T01:21:31;100981.03;;;7.89
76713;BMP280;65640;43.154;25.658;2024-02-04T01:23:56;100964.88;;;7.87
76713;BMP280;65640;43.154;25.658;2024-02-04T01:26:22;100962.72;;;8.00
76713;BMP280;65640;43.154;25.658;2024-02-04T01:28:49;100957.38;;;8.07
76713;BMP280;65640;43.154;25.658;2024-02-04T01:31:14;100948.75;;;8.06
76713;BMP280;65640;43.154;25.658;2024-02-04T01:33:40;100946.84;;;8.02
76713;BMP280;65640;43.154;25.658;2024-02-04T01:36:05;100949.84;;;8.27
76713;BMP280;65640;43.154;25.658;2024-02-04T01:38:31;100940.38;;;8.60
76713;BMP280;65640;43.154;25.658;2024-02-04T01:40:56;100935.16;;;8.60
76713;BMP280;65640;43.154;25.658;2024-02-04T01:43:23;100934.44;;;8.64
76713;BMP280;65640;43.154;25.658;2024-02-04T01:45:50;100926.78;;;8.58
76713;BMP280;65640;43.154;25.658;2024-02-04T01:48:15;100927.75;;;8.52
76713;BMP280;65640;43.154;25.658;2024-02-04T01:50:41;100926.97;;;8.51
76713;BMP280;65640;43.154;25.658;2024-02-04T01:53:07;100931.34;;;8.67
76713;BMP280;65640;43.154;25.658;2024-02-04T01:55:33;100922.72;;;8.67
76713;BMP280;65640;43.154;25.658;2024-02-04T01:57:58;100918.47;;;8.61
76713;BMP280;65640;43.154;25.658;2024-02-04T02:00:24;100911.69;;;8.60
76713;BMP280;65640;43.154;25.658;2024-02-04T02:02:49;100906.41;;;8.55
76713;BMP280;65640;43.154;25.658;2024-02-04T02:05:15;100900.25;;;8.66
76713;BMP280;65640;43.154;25.658;2024-02-04T02:07:40;100904.50;;;8.72
76713;BMP280;65640;43.154;25.658;2024-02-04T02:10:06;100902.44;;;8.74
76713;BMP280;65640;43.154;25.658;2024-02-04T02:12:40;100892.00;;;8.74
76713;BMP280;65640;43.154;25.658;2024-02-04T02:15:15;100895.19;;;8.76
76713;BMP280;65640;43.154;25.658;2024-02-04T02:17:58;100890.44;;;8.73
76713;BMP280;65640;43.154;25.658;2024-02-04T02:20:35;100884.75;;;8.76
76713;BMP280;65640;43.154;25.658;2024-02-04T02:23:21;100881.09;;;8.77
76713;BMP280;65640;43.154;25.658;2024-02-04T02:25:49;100881.56;;;8.74
76713;BMP280;65640;43.154;25.658;2024-02-04T02:28:14;100871.78;;;8.64
76713;BMP280;65640;43.154;25.658;2024-02-04T02:30:40;100879.38;;;8.66
76713;BMP280;65640;43.154;25.658;2024-02-04T02:33:06;100879.53;;;8.76
76713;BMP280;65640;43.154;25.658;2024-02-04T02:35:34;100882.19;;;8.81
76713;BMP280;65640;43.154;25.658;2024-02-04T02:40:46;100875.06;;;8.98
76713;BMP280;65640;43.154;25.658;2024-02-04T02:43:13;100875.63;;;9.00
76713;BMP280;65640;43.154;25.658;2024-02-04T02:45:42;100875.88;;;9.04
76713;BMP280;65640;43.154;25.658;2024-02-04T02:48:09;100878.78;;;9.07
76713;BMP280;65640;43.154;25.658;2024-02-04T02:50:38;100880.75;;;9.17
76713;BMP280;65640;43.154;25.658;2024-02-04T02:53:04;100880.53;;;9.23
76713;BMP280;65640;43.154;25.658;2024-02-04T02:55:29;100879.16;;;9.16
76713;BMP280;65640;43.154;25.658;2024-02-04T02:57:54;100878.16;;;9.22
76713;BMP280;65640;43.154;25.658;2024-02-04T03:00:20;100887.41;;;9.35
76713;BMP280;65640;43.154;25.658;2024-02-04T03:02:46;100880.56;;;9.29
76713;BMP280;65640;43.154;25.658;2024-02-04T03:05:12;100888.84;;;9.20
76713;BMP280;65640;43.154;25.658;2024-02-04T03:07:37;100877.25;;;9.11
76713;BMP280;65640;43.154;25.658;2024-02-04T03:10:03;100884.06;;;9.12
76713;BMP280;65640;43.154;25.658;2024-02-04T03:12:28;100886.91;;;9.11
76713;BMP280;65640;43.154;25.658;2024-02-04T03:14:53;100889.47;;;9.06
76713;BMP280;65640;43.154;25.658;2024-02-04T03:17:19;100894.63;;;8.96
76713;BMP280;65640;43.154;25.658;2024-02-04T03:19:48;100888.13;;;8.98
76713;BMP280;65640;43.154;25.658;2024-02-04T03:22:14;100895.44;;;9.01
76713;BMP280;65640;43.154;25.658;2024-02-04T03:24:39;100893.22;;;8.88
76713;BMP280;65640;43.154;25.658;2024-02-04T03:27:05;100890.84;;;8.86
76713;BMP280;65640;43.154;25.658;2024-02-04T03:29:30;100885.53;;;8.76
76713;BMP280;65640;43.154;25.658;2024-02-04T03:31:56;100890.66;;;8.93
76713;BMP280;65640;43.154;25.658;2024-02-04T03:34:21;100893.63;;;9.02
76713;BMP280;65640;43.154;25.658;2024-02-04T03:36:47;100899.81;;;9.17
76713;BMP280;65640;43.154;25.658;2024-02-04T03:39:12;100893.88;;;9.27
76713;BMP280;65640;43.154;25.658;2024-02-04T03:41:37;100893.09;;;9.58
76713;BMP280;65640;43.154;25.658;2024-02-04T03:44:04;100896.41;;;9.81
76713;BMP280;65640;43.154;25.658;2024-02-04T03:46:29;100899.63;;;9.93
76713;BMP280;65640;43.154;25.658;2024-02-04T03:48:55;100894.69;;;9.96
76713;BMP280;65640;43.154;25.658;2024-02-04T03:51:20;100898.56;;;9.94
76713;BMP280;65640;43.154;25.658;2024-02-04T03:53:47;100898.56;;;9.94
76713;BMP280;65640;43.154;25.658;2024-02-04T03:56:13;100887.38;;;9.98
76713;BMP280;65640;43.154;25.658;2024-02-04T03:58:38;100898.84;;;9.92
76713;BMP280;65640;43.154;25.658;2024-02-04T04:01:04;100881.59;;;9.91
76713;BMP280;65640;43.154;25.658;2024-02-04T04:03:29;100879.00;;;9.96
76713;BMP280;65640;43.154;25.658;2024-02-04T04:05:54;100870.19;;;10.07
76713;BMP280;65640;43.154;25.658;2024-02-04T04:08:20;100880.09;;;10.05
76713;BMP280;65640;43.154;25.658;2024-02-04T04:10:45;100878.53;;;10.10
76713;BMP280;65640;43.154;25.658;2024-02-04T04:13:11;100879.06;;;10.06
76713;BMP280;65640;43.154;25.658;2024-02-04T04:15:37;100881.13;;;10.04
76713;BMP280;65640;43.154;25.658;2024-02-04T04:18:03;100874.88;;;10.05
76713;BMP280;65640;43.154;25.658;2024-02-04T04:20:28;100875.03;;;9.94
76713;BMP280;65640;43.154;25.658;2024-02-04T04:22:53;100870.09;;;9.97
76713;BMP280;65640;43.154;25.658;2024-02-04T04:25:19;100890.31;;;10.07
76713;BMP280;65640;43.154;25.658;2024-02-04T04:27:44;100895.31;;;10.19
76713;BMP280;65640;43.154;25.658;2024-02-04T04:30:10;100886.97;;;10.22
76713;BMP280;65640;43.154;25.658;2024-02-04T04:32:36;100891.44;;;10.21
76713;BMP280;65640;43.154;25.658;2024-02-04T04:35:01;100893.78;;;10.23
76713;BMP280;65640;43.154;25.658;2024-02-04T04:37:26;100891.66;;;10.20
76713;BMP280;65640;43.154;25.658;2024-02-04T04:39:52;100889.84;;;10.20
76713;BMP280;65640;43.154;25.658;2024-02-04T04:42:17;100898.97;;;10.13
76713;BMP280;65640;43.154;25.658;2024-02-04T04:44:43;100898.22;;;10.17
76713;BMP280;65640;43.154;25.658;2024-02-04T04:47:08;100897.69;;;10.15
76713;BMP280;65640;43.154;25.658;2024-02-04T04:49:34;100896.97;;;10.25
76713;BMP280;65640;43.154;25.658;2024-02-04T04:51:59;100889.63;;;10.27
76713;BMP280;65640;43.154;25.658;2024-02-04T04:54:24;100888.56;;;10.23
76713;BMP280;65640;43.154;25.658;2024-02-04T04:56:50;100883.03;;;10.19
76713;BMP280;65640;43.154;25.658;2024-02-04T04:59:16;100894.53;;;10.18
76713;BMP280;65640;43.154;25.658;2024-02-04T05:01:46;100903.19;;;10.14
76713;BMP280;65640;43.154;25.658;2024-02-04T05:04:11;100894.75;;;10.06
76713;BMP280;65640;43.154;25.658;2024-02-04T05:06:37;100895.31;;;10.09
76713;BMP280;65640;43.154;25.658;2024-02-04T05:09:02;100897.88;;;10.03
76713;BMP280;65640;43.154;25.658;2024-02-04T05:11:28;100900.00;;;10.06
76713;BMP280;65640;43.154;25.658;2024-02-04T05:13:53;100900.00;;;10.06
76713;BMP280;65640;43.154;25.658;2024-02-04T05:16:19;100901.03;;;10.05
76713;BMP280;65640;43.154;25.658;2024-02-04T05:18:45;100898.41;;;10.05
76713;BMP280;65640;43.154;25.658;2024-02-04T05:21:10;100901.31;;;10.09
76713;BMP280;65640;43.154;25.658;2024-02-04T05:23:36;100893.09;;;9.95
76713;BMP280;65640;43.154;25.658;2024-02-04T05:26:05;100892.31;;;9.95
76713;BMP280;65640;43.154;25.658;2024-02-04T05:28:31;100894.13;;;9.89
76713;BMP280;65640;43.154;25.658;2024-02-04T05:30:57;100892.03;;;9.91
76713;BMP280;65640;43.154;25.658;2024-02-04T05:33:22;100895.13;;;9.83
76713;BMP280;65640;43.154;25.658;2024-02-04T05:35:47;100900.88;;;9.80
76713;BMP280;65640;43.154;25.658;2024-02-04T05:38:13;100902.44;;;9.81
76713;BMP280;65640;43.154;25.658;2024-02-04T05:40:38;100893.56;;;9.82
76713;BMP280;65640;43.154;25.658;2024-02-04T05:43:04;100896.38;;;9.76
76713;BMP280;65640;43.154;25.658;2024-02-04T05:45:34;100897.41;;;9.75
76713;BMP280;65640;43.154;25.658;2024-02-04T05:47:59;100894.25;;;9.73
76713;BMP280;65640;43.154;25.658;2024-02-04T05:50:25;100898.72;;;9.77
76713;BMP280;65640;43.154;25.658;2024-02-04T05:52:50;100902.63;;;9.70
76713;BMP280;65640;43.154;25.658;2024-02-04T05:55:15;100910.75;;;9.73
76713;BMP280;65640;43.154;25.658;2024-02-04T05:57:41;100907.84;;;9.70
76713;BMP280;65640;43.154;25.658;2024-02-04T06:00:08;100908.38;;;9.72
76713;BMP280;65640;43.154;25.658;2024-02-04T06:02:35;100914.97;;;9.79
76713;BMP280;65640;43.154;25.658;2024-02-04T06:05:00;100911.06;;;9.82
76713;BMP280;65640;43.154;25.658;2024-02-04T06:07:26;100915.78;;;9.85
76713;BMP280;65640;43.154;25.658;2024-02-04T06:09:51;100912.34;;;9.79
76713;BMP280;65640;43.154;25.658;2024-02-04T06:12:17;100917.81;;;9.78
76713;BMP280;65640;43.154;25.658;2024-02-04T06:14:42;100917.56;;;9.74
76713;BMP280;65640;43.154;25.658;2024-02-04T06:17:07;100919.09;;;9.75
76713;BMP280;65640;43.154;25.658;2024-02-04T06:19:34;100911.81;;;9.77
76713;BMP280;65640;43.154;25.658;2024-02-04T06:22:00;100917.25;;;9.71
76713;BMP280;65640;43.154;25.658;2024-02-04T06:24:25;100913.63;;;9.77
76713;BMP280;65640;43.154;25.658;2024-02-04T06:26:50;100917.03;;;9.77
76713;BMP280;65640;43.154;25.658;2024-02-04T06:29:16;100914.41;;;9.77
76713;BMP280;65640;43.154;25.658;2024-02-04T06:31:44;100918.31;;;9.70
76713;BMP280;65640;43.154;25.658;2024-02-04T06:34:10;100906.03;;;9.75
76713;BMP280;65640;43.154;25.658;2024-02-04T06:36:36;100907.13;;;9.79
76713;BMP280;65640;43.154;25.658;2024-02-04T06:39:01;100908.72;;;9.80
76713;BMP280;65640;43.154;25.658;2024-02-04T06:41:26;100909.50;;;9.81
76713;BMP280;65640;43.154;25.658;2024-02-04T06:43:52;100913.97;;;9.85
76713;BMP280;65640;43.154;25.658;2024-02-04T06:46:24;100916.81;;;9.84
76713;BMP280;65640;43.154;25.658;2024-02-04T06:48:50;100921.78;;;9.80
76713;BMP280;65640;43.154;25.658;2024-02-04T06:51:15;100919.72;;;9.82
76713;BMP280;65640;43.154;25.658;2024-02-04T06:53:41;100929.66;;;9.85
76713;BMP280;65640;43.154;25.658;2024-02-04T06:56:06;100924.88;;;9.77
76713;BMP280;65640;43.154;25.658;2024-02-04T06:58:32;100927.28;;;9.84
76713;BMP280;65640;43.154;25.658;2024-02-04T07:00:57;100933.50;;;9.78
76713;BMP280;65640;43.154;25.658;2024-02-04T07:03:23;100934.09;;;9.85
76713;BMP280;65640;43.154;25.658;2024-02-04T07:05:48;100939.13;;;9.91
76713;BMP280;65640;43.154;25.658;2024-02-04T07:08:13;100944.41;;;10.01
76713;BMP280;65640;43.154;25.658;2024-02-04T07:10:40;100942.66;;;10.12
76713;BMP280;65640;43.154;25.658;2024-02-04T07:13:05;100942.41;;;10.14
76713;BMP280;65640;43.154;25.658;2024-02-04T07:15:31;100947.72;;;10.24
76713;BMP280;65640;43.154;25.658;2024-02-04T07:17:57;100954.00;;;10.28
76713;BMP280;65640;43.154;25.658;2024-02-04T07:20:22;100947.19;;;10.27
76713;BMP280;65640;43.154;25.658;2024-02-04T07:22:47;100955.03;;;10.27
76713;BMP280;65640;43.154;25.658;2024-02-04T07:25:13;100947.97;;;10.27
76713;BMP280;65640;43.154;25.658;2024-02-04T07:27:39;100940.97;;;10.33
76713;BMP280;65640;43.154;25.658;2024-02-04T07:30:05;100943.59;;;10.38
76713;BMP280;65640;43.154;25.658;2024-02-04T07:32:30;100938.66;;;10.41
76713;BMP280;65640;43.154;25.658;2024-02-04T07:34:56;100930.81;;;10.46
76713;BMP280;65640;43.154;25.658;2024-02-04T07:37:21;100938.69;;;10.52
76713;BMP280;65640;43.154;25.658;2024-02-04T07:39:46;100938.97;;;10.55
76713;BMP280;65640;43.154;25.658;2024-02-04T07:42:12;100939.00;;;10.60
76713;BMP280;65640;43.154;25.658;2024-02-04T07:44:37;100939.75;;;10.61
76713;BMP280;65640;43.154;25.658;2024-02-04T07:47:03;100948.41;;;10.61
76713;BMP280;65640;43.154;25.658;2024-02-04T07:49:28;100936.88;;;10.62
76713;BMP280;65640;43.154;25.658;2024-02-04T07:51:54;100926.16;;;10.64
76713;BMP280;65640;43.154;25.658;2024-02-04T07:54:19;100936.94;;;10.72
76713;BMP280;65640;43.154;25.658;2024-02-04T07:56:44;100929.06;;;10.67
76713;BMP280;65640;43.154;25.658;2024-02-04T07:59:10;100929.63;;;10.74
76713;BMP280;65640;43.154;25.658;2024-02-04T08:01:36;100932.25;;;10.84
76713;BMP280;65640;43.154;25.658;2024-02-04T08:04:01;100929.66;;;10.89
76713;BMP280;65640;43.154;25.658;2024-02-04T08:06:27;100929.13;;;10.93
76713;BMP280;65640;43.154;25.658;2024-02-04T08:08:53;100921.81;;;10.95
76713;BMP280;65640;43.154;25.658;2024-02-04T08:11:20;100921.03;;;10.99
76713;BMP280;65640;43.154;25.658;2024-02-04T08:13:46;100913.44;;;11.08
76713;BMP280;65640;43.154;25.658;2024-02-04T08:16:12;100913.19;;;11.09
76713;BMP280;65640;43.154;25.658;2024-02-04T08:18:37;100909.03;;;11.18
76713;BMP280;65640;43.154;25.658;2024-02-04T08:21:03;100908.25;;;11.23
76713;BMP280;65640;43.154;25.658;2024-02-04T08:23:29;100910.31;;;11.31
76713;BMP280;65640;43.154;25.658;2024-02-04T08:25:54;100902.50;;;11.41
76713;BMP280;65640;43.154;25.658;2024-02-04T08:28:21;100897.50;;;11.55
76713;BMP280;65640;43.154;25.658;2024-02-04T08:30:48;100906.16;;;11.65
76713;BMP280;65640;43.154;25.658;2024-02-04T08:33:14;100905.84;;;11.82
76713;BMP280;65640;43.154;25.658;2024-02-04T08:35:39;100910.81;;;11.99
76713;BMP280;65640;43.154;25.658;2024-02-04T08:38:04;100907.66;;;12.07
76713;BMP280;65640;43.154;25.658;2024-02-04T08:40:30;100920.22;;;12.15
76713;BMP280;65640;43.154;25.658;2024-02-04T08:42:55;100912.56;;;12.19
76713;BMP280;65640;43.154;25.658;2024-02-04T08:45:21;100912.28;;;12.35
76713;BMP280;65640;43.154;25.658;2024-02-04T08:47:46;100926.34;;;12.60
76713;BMP280;65640;43.154;25.658;2024-02-04T08:50:12;100923.63;;;12.75
76713;BMP280;65640;43.154;25.658;2024-02-04T08:52:37;100923.50;;;12.95
76713;BMP280;65640;43.154;25.658;2024-02-04T08:55:03;100923.06;;;13.22
76713;BMP280;65640;43.154;25.658;2024-02-04T08:57:29;100933.94;;;13.39
76713;BMP280;65640;43.154;25.658;2024-02-04T08:59:55;100924.69;;;13.47
76713;BMP280;65640;43.154;25.658;2024-02-04T09:02:20;100928.47;;;13.35
76713;BMP280;65640;43.154;25.658;2024-02-04T09:04:46;100930.66;;;13.28
76713;BMP280;65640;43.154;25.658;2024-02-04T09:07:12;100927.50;;;13.26
76713;BMP280;65640;43.154;25.658;2024-02-04T09:09:37;100928.03;;;13.28
76713;BMP280;65640;43.154;25.658;2024-02-04T09:12:03;100941.69;;;13.30
76713;BMP280;65640;43.154;25.658;2024-02-04T09:14:28;100934.25;;;13.32
76713;BMP280;65640;43.154;25.658;2024-02-04T09:16:54;100931.72;;;13.27
76713;BMP280;65640;43.154;25.658;2024-02-04T09:19:19;100916.53;;;13.14
76713;BMP280;65640;43.154;25.658;2024-02-04T09:21:44;100923.03;;;13.27
76713;BMP280;65640;43.154;25.658;2024-02-04T09:24:10;100920.31;;;13.37
76713;BMP280;65640;43.154;25.658;2024-02-04T09:26:36;100929.78;;;13.38
76713;BMP280;65640;43.154;25.658;2024-02-04T09:29:01;100942.44;;;13.31
76713;BMP280;65640;43.154;25.658;2024-02-04T09:31:27;100937.53;;;13.24
76713;BMP280;65640;43.154;25.658;2024-02-04T09:33:53;100942.78;;;13.19
76713;BMP280;65640;43.154;25.658;2024-02-04T09:36:19;100935.56;;;13.06
76713;BMP280;65640;43.154;25.658;2024-02-04T09:38:44;100938.91;;;13.12
76713;BMP280;65640;43.154;25.658;2024-02-04T09:41:09;100924.38;;;13.19
76713;BMP280;65640;43.154;25.658;2024-02-04T09:43:36;100934.00;;;13.05
76713;BMP280;65640;43.154;25.658;2024-02-04T09:46:02;100935.06;;;12.94
76713;BMP280;65640;43.154;25.658;2024-02-04T09:48:32;100931.13;;;12.96
76713;BMP280;65640;43.154;25.658;2024-02-04T09:50:58;100926.66;;;12.97
76713;BMP280;65640;43.154;25.658;2024-02-04T09:53:34;100925.56;;;13.03
76713;BMP280;65640;43.154;25.658;2024-02-04T09:56:01;100924.00;;;13.02
76713;BMP280;65640;43.154;25.658;2024-02-04T09:58:27;100918.66;;;13.12
76713;BMP280;65640;43.154;25.658;2024-02-04T10:00:53;100920.44;;;13.22
76713;BMP280;65640;43.154;25.658;2024-02-04T10:03:19;100930.50;;;13.10
76713;BMP280;65640;43.154;25.658;2024-02-04T10:05:46;100919.78;;;13.06
76713;BMP280;65640;43.154;25.658;2024-02-04T10:08:11;100921.91;;;13.04
76713;BMP280;65640;43.154;25.658;2024-02-04T10:10:37;100912.09;;;13.10
76713;BMP280;65640;43.154;25.658;2024-02-04T10:13:09;100913.34;;;13.22
76713;BMP280;65640;43.154;25.658;2024-02-04T10:15:34;100916.50;;;13.24
76713;BMP280;65640;43.154;25.658;2024-02-04T10:18:03;100922.53;;;13.25
76713;BMP280;65640;43.154;25.658;2024-02-04T10:20:28;100914.34;;;13.26
76713;BMP280;65640;43.154;25.658;2024-02-04T10:22:54;100921.19;;;13.27
76713;BMP280;65640;43.154;25.658;2024-02-04T10:25:20;100912.47;;;13.32
76713;BMP280;65640;43.154;25.658;2024-02-04T10:27:46;100919.13;;;13.24
76713;BMP280;65640;43.154;25.658;2024-02-04T10:30:12;100917.53;;;13.23
76713;BMP280;65640;43.154;25.658;2024-02-04T10:32:38;100906.75;;;13.25
76713;BMP280;65640;43.154;25.658;2024-02-04T10:35:04;100908.22;;;13.36
76713;BMP280;65640;43.154;25.658;2024-02-04T10:37:30;100905.03;;;13.39
76713;BMP280;65640;43.154;25.658;2024-02-04T10:39:55;100901.81;;;13.47
76713;BMP280;65640;43.154;25.658;2024-02-04T10:42:24;100901.66;;;13.33
76713;BMP280;65640;43.154;25.658;2024-02-04T10:44:52;100904.91;;;13.25
76713;BMP280;65640;43.154;25.658;2024-02-04T10:47:22;100903.59;;;13.23
76713;BMP280;65640;43.154;25.658;2024-02-04T10:49:51;100898.31;;;13.28
76713;BMP280;65640;43.154;25.658;2024-02-04T10:52:18;100903.84;;;13.26
76713;BMP280;65640;43.154;25.658;2024-02-04T10:54:46;100900.44;;;13.21
76713;BMP280;65640;43.154;25.658;2024-02-04T10:57:20;100898.63;;;13.21
76713;BMP280;65640;43.154;25.658;2024-02-04T10:59:47;100894.66;;;13.24
76713;BMP280;65640;43.154;25.658;2024-02-04T11:02:15;100908.59;;;13.19
76713;BMP280;65640;43.154;25.658;2024-02-04T11:04:42;100892.59;;;13.16
76713;BMP280;65640;43.154;25.658;2024-02-04T11:07:08;100887.47;;;13.06
76713;BMP280;65640;43.154;25.658;2024-02-04T11:09:36;100887.66;;;13.09
76713;BMP280;65640;43.154;25.658;2024-02-04T11:12:04;100886.66;;;13.05
76713;BMP280;65640;43.154;25.658;2024-02-04T11:14:32;100887.66;;;13.09
76713;BMP280;65640;43.154;25.658;2024-02-04T11:17:24;100884.94;;;13.19
76713;BMP280;65640;43.154;25.658;2024-02-04T11:23:45;100891.88;;;13.39
76713;BMP280;65640;43.154;25.658;2024-02-04T11:28:10;100887.34;;;13.16
76713;BMP280;65640;43.154;25.658;2024-02-04T11:30:36;100885.63;;;13.06
76713;BMP280;65640;43.154;25.658;2024-02-04T11:33:03;100865.56;;;13.10
76713;BMP280;65640;43.154;25.658;2024-02-04T11:35:29;100874.03;;;13.07
76713;BMP280;65640;43.154;25.658;2024-02-04T11:37:54;100858.47;;;13.11
76713;BMP280;65640;43.154;25.658;2024-02-04T11:40:20;100846.88;;;13.17
76713;BMP280;65640;43.154;25.658;2024-02-04T11:42:48;100844.84;;;13.32
76713;BMP280;65640;43.154;25.658;2024-02-04T11:45:14;100839.00;;;13.40
76713;BMP280;65640;43.154;25.658;2024-02-04T11:47:40;100838.78;;;13.37
76713;BMP280;65640;43.154;25.658;2024-02-04T11:50:06;100853.78;;;13.36
76713;BMP280;65640;43.154;25.658;2024-02-04T11:52:32;100847.78;;;13.31
76713;BMP280;65640;43.154;25.658;2024-02-04T11:54:57;100847.22;;;13.34
76713;BMP280;65640;43.154;25.658;2024-02-04T11:57:23;100842.03;;;13.29
76713;BMP280;65640;43.154;25.658;2024-02-04T11:59:50;100841.28;;;13.23
76713;BMP280;65640;43.154;25.658;2024-02-04T12:02:16;100841.34;;;13.13
76713;BMP280;65640;43.154;25.658;2024-02-04T12:04:46;100835.69;;;13.06
76713;BMP280;65640;43.154;25.658;2024-02-04T12:07:13;100844.06;;;13.08
76713;BMP280;65640;43.154;25.658;2024-02-04T12:09:38;100844.81;;;13.09
76713;BMP280;65640;43.154;25.658;2024-02-04T12:12:04;100856.19;;;13.04
76713;BMP280;65640;43.154;25.658;2024-02-04T12:14:30;100845.94;;;13.03
76713;BMP280;65640;43.154;25.658;2024-02-04T12:16:56;100851.25;;;13.26
76713;BMP280;65640;43.154;25.658;2024-02-04T12:19:22;100844.78;;;13.42
76713;BMP280;65640;43.154;25.658;2024-02-04T12:21:48;100851.16;;;13.60
76713;BMP280;65640;43.154;25.658;2024-02-04T12:24:14;100834.38;;;13.80
76713;BMP280;65640;43.154;25.658;2024-02-04T12:26:39;100845.16;;;13.78
76713;BMP280;65640;43.154;25.658;2024-02-04T12:29:06;100827.09;;;13.72
76713;BMP280;65640;43.154;25.658;2024-02-04T12:31:32;100812.00;;;13.77
76713;BMP280;65640;43.154;25.658;2024-02-04T12:33:59;100808.56;;;13.82
76713;BMP280;65640;43.154;25.658;2024-02-04T12:36:30;100822.13;;;13.94
76713;BMP280;65640;43.154;25.658;2024-02-04T12:39:00;100828.88;;;14.00
76713;BMP280;65640;43.154;25.658;2024-02-04T12:41:27;100822.59;;;13.96
76713;BMP280;65640;43.154;25.658;2024-02-04T12:43:54;100810.44;;;14.00
76713;BMP280;65640;43.154;25.658;2024-02-04T12:46:20;100815.22;;;13.98
76713;BMP280;65640;43.154;25.658;2024-02-04T12:48:57;100808.72;;;14.09
76713;BMP280;65640;43.154;25.658;2024-02-04T12:51:32;100811.38;;;14.09
76713;BMP280;65640;43.154;25.658;2024-02-04T12:54:07;100802.97;;;14.07
76713;BMP280;65640;43.154;25.658;2024-02-04T12:59:10;100795.03;;;14.12
76713;BMP280;65640;43.154;25.658;2024-02-04T13:01:38;100797.06;;;14.15
76713;BMP280;65640;43.154;25.658;2024-02-04T13:04:04;100791.16;;;14.23
76713;BMP280;65640;43.154;25.658;2024-02-04T13:06:31;100793.72;;;14.28
76713;BMP280;65640;43.154;25.658;2024-02-04T13:08:56;100782.63;;;14.32
76713;BMP280;65640;43.154;25.658;2024-02-04T13:11:25;100773.97;;;14.26
76713;BMP280;65640;43.154;25.658;2024-02-04T13:13:51;100784.81;;;14.24
76713;BMP280;65640;43.154;25.658;2024-02-04T13:16:17;100766.94;;;14.21
76713;BMP280;65640;43.154;25.658;2024-02-04T13:18:44;100787.16;;;14.26
76713;BMP280;65640;43.154;25.658;2024-02-04T13:21:16;100773.00;;;14.22
76713;BMP280;65640;43.154;25.658;2024-02-04T13:23:45;100772.66;;;14.28
76713;BMP280;65640;43.154;25.658;2024-02-04T13:26:10;100770.88;;;14.24
76713;BMP280;65640;43.154;25.658;2024-02-04T13:28:35;100767.56;;;14.18
76713;BMP280;65640;43.154;25.658;2024-02-04T13:31:02;100765.59;;;14.24
76713;BMP280;65640;43.154;25.658;2024-02-04T13:33:27;100766.25;;;14.16
76713;BMP280;65640;43.154;25.658;2024-02-04T13:35:52;100771.25;;;14.17
76713;BMP280;65640;43.154;25.658;2024-02-04T13:38:18;100757.03;;;14.18
76713;BMP280;65640;43.154;25.658;2024-02-04T13:40:43;100764.63;;;14.20
76713;BMP280;65640;43.154;25.658;2024-02-04T13:43:09;100760.88;;;14.21
76713;BMP280;65640;43.154;25.658;2024-02-04T13:45:34;100761.69;;;14.21
76713;BMP280;65640;43.154;25.658;2024-02-04T13:47:59;100761.59;;;14.26
76713;BMP280;65640;43.154;25.658;2024-02-04T13:50:25;100760.78;;;14.31
76713;BMP280;65640;43.154;25.658;2024-02-04T13:52:50;100755.19;;;14.32
76713;BMP280;65640;43.154;25.658;2024-02-04T13:55:16;100765.69;;;14.38